Time;durP1;ratioP1;P1;durP2;ratioP2;P2;SDS_P1;SDS_P2;PMS_P1;PMS_P2;Temp;Humidity;BMP_temperature;BMP_pressure;BME280_temperature;BME280_humidity;BME280_pressure;Samples;Min_cycle;Max_cycle;Signal;HPM_P1;HPM_P2
2021/08/06 00:01:20;;;;;;;20.17;13.83;;;;;;;15.49;88.70;96032.92;127035;1092;62638;-77
2021/08/06 00:03:47;;;;;;;22.03;14.17;;;;;;;15.45;88.85;96040.78;126968;1092;62716;-76
2021/08/06 00:06:14;;;;;;;21.93;14.03;;;;;;;15.45;88.83;96035.20;127008;1092;62644;-78
2021/08/06 00:08:41;;;;;;;19.50;12.97;;;;;;;15.45;88.92;96040.78;127183;1092;62650;-78
2021/08/06 00:11:08;;;;;;;21.23;12.97;;;;;;;15.44;88.85;96048.39;127075;1092;62644;-79
2021/08/06 00:13:35;;;;;;;16.27;12.60;;;;;;;15.45;88.71;96055.48;127018;1092;62594;-77
2021/08/06 00:16:03;;;;;;;17.90;12.67;;;;;;;15.46;88.58;96045.09;127083;1092;62996;-75
2021/08/06 00:18:50;;;;;;;17.57;12.40;;;;;;;15.45;88.55;96043.58;127014;1092;62632;-78
2021/08/06 00:21:18;;;;;;;19.43;12.47;;;;;;;15.48;88.80;96042.55;127076;1092;62608;-78
2021/08/06 00:23:45;;;;;;;16.80;12.90;;;;;;;15.48;88.61;96036.98;126916;1092;62641;-73
2021/08/06 00:26:12;;;;;;;19.60;12.37;;;;;;;15.48;88.69;96045.34;126939;1092;62626;-77
2021/08/06 00:28:40;;;;;;;19.87;13.00;;;;;;;15.46;88.74;96033.94;126906;1092;62708;-76
2021/08/06 00:31:07;;;;;;;23.13;12.77;;;;;;;15.47;88.75;96046.61;126968;1092;62745;-76
2021/08/06 00:33:34;;;;;;;19.37;12.53;;;;;;;15.46;88.83;96039.52;126957;1092;62665;-77
2021/08/06 00:36:01;;;;;;;18.80;12.35;;;;;;;15.46;88.56;96043.06;127037;1092;62873;-77
2021/08/06 00:38:28;;;;;;;17.37;11.80;;;;;;;15.48;88.63;96039.77;126993;1092;62624;-76
2021/08/06 00:40:55;;;;;;;19.27;12.03;;;;;;;15.46;88.55;96033.94;127060;1092;62630;-78
2021/08/06 00:43:22;;;;;;;21.30;13.07;;;;;;;15.47;88.52;96035.45;127150;1092;62707;-74
2021/08/06 00:45:49;;;;;;;20.50;12.93;;;;;;;15.46;88.64;96033.94;127085;1092;62653;-76
2021/08/06 00:48:16;;;;;;;20.30;12.97;;;;;;;15.44;88.59;96034.45;127158;1092;62588;-73
2021/08/06 00:50:43;;;;;;;18.60;11.97;;;;;;;15.44;88.57;96031.66;127135;1091;63086;-77
2021/08/06 00:53:10;;;;;;;19.03;12.43;;;;;;;15.42;88.81;96029.34;127032;1092;62704;-77
2021/08/06 00:55:41;;;;;;;18.97;12.30;;;;;;;15.42;88.74;96023.77;127074;1092;62663;-77
2021/08/06 00:58:11;;;;;;;15.57;11.73;;;;;;;15.41;88.60;96033.41;127040;1092;63038;-75
2021/08/06 01:00:39;;;;;;;;;;;;;;;15.36;88.52;96028.59;127046;1092;62669;-76
2021/08/06 01:03:25;;;;;;;17.93;11.40;;;;;;;15.37;88.57;96026.56;126959;1092;62616;-76
2021/08/06 01:06:06;;;;;;;14.90;11.10;;;;;;;15.38;88.60;96028.08;127069;1092;62706;-72
2021/08/06 01:08:43;;;;;;;15.07;11.23;;;;;;;15.38;88.74;96028.08;126970;1092;62793;-78
2021/08/06 01:11:11;;;;;;;15.67;10.13;;;;;;;15.38;88.70;96039.23;126925;1092;62572;-77
2021/08/06 01:13:48;;;;;;;15.63;10.90;;;;;;;15.36;88.63;96023.02;127018;1092;62577;-74
2021/08/06 01:16:15;;;;;;;14.50;10.13;;;;;;;15.35;88.56;96017.94;127178;1092;62673;-77
2021/08/06 01:18:49;;;;;;;15.93;10.47;;;;;;;15.35;88.55;96007.55;126984;1092;62660;-77
2021/08/06 01:21:17;;;;;;;17.80;10.53;;;;;;;15.35;88.69;96027.07;127092;1092;62622;-77
2021/08/06 01:23:44;;;;;;;14.23;10.40;;;;;;;15.36;88.82;96025.05;127200;1092;62626;-77
2021/08/06 01:26:16;;;;;;;17.70;11.00;;;;;;;15.34;88.65;96033.92;126981;1092;62629;-72
2021/08/06 01:28:44;;;;;;;14.33;10.23;;;;;;;15.29;88.69;96023.53;126968;1092;62626;-76
2021/08/06 01:31:12;;;;;;;15.33;10.67;;;;;;;15.28;88.77;96024.03;126923;1092;62678;-76
2021/08/06 01:33:39;;;;;;;17.17;10.63;;;;;;;15.28;88.79;96030.38;126931;1092;62774;-74
2021/08/06 01:36:06;;;;;;;12.20;9.67;;;;;;;15.29;88.79;96031.13;126940;1092;62626;-77
2021/08/06 01:38:33;;;;;;;15.13;10.47;;;;;;;15.26;88.60;96021.75;127181;1092;62642;-77
2021/08/06 01:41:17;;;;;;;13.90;10.43;;;;;;;15.27;88.77;96028.84;127129;1092;62575;-75
2021/08/06 01:44:15;;;;;;;15.67;10.00;;;;;;;15.28;88.66;96024.03;127004;1092;62681;-76
2021/08/06 01:46:52;;;;;;;14.97;10.17;;;;;;;15.27;88.63;96022.52;126976;1092;63017;-74
2021/08/06 01:49:31;;;;;;;11.87;9.97;;;;;;;15.26;88.51;96013.39;127115;1092;62672;-73
2021/08/06 01:52:06;;;;;;;16.80;11.10;;;;;;;15.23;88.64;96002.46;127224;1092;62661;-76
2021/08/06 01:54:33;;;;;;;17.80;10.20;;;;;;;15.23;88.62;96006.01;127129;1092;62643;-75
2021/08/06 01:57:00;;;;;;;18.77;11.27;;;;;;;15.22;88.73;96007.28;127138;1092;62815;-76
2021/08/06 01:59:27;;;;;;;18.90;10.37;;;;;;;15.22;88.65;96015.64;127080;1092;62799;-77
2021/08/06 02:01:55;;;;;;;14.33;9.90;;;;;;;15.22;88.61;96007.28;127047;1092;62729;-78
2021/08/06 02:04:25;;;;;;;14.10;10.03;;;;;;;15.20;88.86;96018.17;126947;1092;62575;-77
2021/08/06 02:06:52;;;;;;;;;;;;;;;15.17;88.89;96008.05;127109;1092;62912;-76
2021/08/06 02:09:20;;;;;;;15.93;9.50;;;;;;;15.18;88.97;96015.14;126999;1092;62696;-76
2021/08/06 02:11:48;;;;;;;14.03;9.20;;;;;;;15.18;89.07;96009.56;127129;1092;62768;-77
2021/08/06 02:14:16;;;;;;;15.00;9.03;;;;;;;15.20;88.88;96012.60;127106;1092;62626;-73
2021/08/06 02:16:43;;;;;;;18.23;9.27;;;;;;;15.23;88.96;96017.16;126986;1092;62553;-77
2021/08/06 02:19:12;;;;;;;15.23;8.80;;;;;;;15.25;89.03;96025.78;126975;1092;62625;-77
2021/08/06 02:21:39;;;;;;;11.63;8.00;;;;;;;15.27;88.95;96023.27;126988;1092;62653;-79
2021/08/06 02:24:08;;;;;;;12.20;8.33;;;;;;;15.29;88.91;96026.31;127165;1092;63050;-80
2021/08/06 02:26:36;;;;;;;13.20;8.90;;;;;;;15.32;88.58;96022.51;127206;1092;62629;-81
2021/08/06 02:29:05;;;;;;;12.80;9.47;;;;;;;15.35;88.45;96017.94;127233;1092;62636;-78
2021/08/06 02:31:32;;;;;;;14.50;9.73;;;;;;;15.36;88.49;96025.80;127015;1092;62623;-77
2021/08/06 02:34:00;;;;;;;11.37;9.03;;;;;;;15.35;88.28;96023.52;127002;1092;62726;-77
2021/08/06 02:36:27;;;;;;;12.40;9.33;;;;;;;15.31;87.56;96029.36;126949;1092;62760;-79
2021/08/06 02:38:57;;;;;;;11.50;8.80;;;;;;;15.31;87.47;96029.36;126995;1092;62608;-79
2021/08/06 02:41:24;;;;;;;12.37;8.70;;;;;;;15.32;87.27;96035.70;126947;1092;62626;-78
2021/08/06 02:43:51;;;;;;;11.23;7.97;;;;;;;15.34;87.14;96045.08;126942;1092;62598;-77
2021/08/06 02:46:18;;;;;;;10.03;8.10;;;;;;;15.38;87.17;96040.00;126934;1092;62977;-78
2021/08/06 02:48:45;;;;;;;13.20;9.10;;;;;;;15.40;86.74;96039.49;126938;1092;62777;-78
2021/08/06 02:51:12;;;;;;;15.23;9.90;;;;;;;15.42;86.74;96034.92;126953;1092;62827;-79
2021/08/06 02:53:39;;;;;;;10.67;8.63;;;;;;;15.43;86.84;96036.45;127010;1092;62623;-79
2021/08/06 02:56:06;;;;;;;10.70;7.90;;;;;;;15.43;86.80;96036.45;126997;1092;62661;-72
2021/08/06 02:58:33;;;;;;;9.57;7.40;;;;;;;15.43;86.46;96030.86;126949;1092;62706;-78
2021/08/06 03:01:00;;;;;;;13.47;7.60;;;;;;;15.43;86.36;96032.89;127147;1092;62690;-77
2021/08/06 03:03:27;;;;;;;10.33;7.13;;;;;;;15.43;86.19;96035.69;126950;1092;62633;-79
2021/08/06 03:05:54;;;;;;;12.45;7.65;;;;;;;15.42;86.22;96034.92;126948;1092;62634;-79
2021/08/06 03:08:21;;;;;;;10.50;6.80;;;;;;;15.39;85.84;96041.52;127072;1092;62648;-77
2021/08/06 03:11:08;;;;;;;10.67;7.20;;;;;;;15.37;85.76;96038.48;126940;1092;62687;-79
2021/08/06 03:13:50;;;;;;;11.80;6.97;;;;;;;15.36;85.87;96031.38;126945;1092;62619;-78
2021/08/06 03:16:17;;;;;;;9.60;6.57;;;;;;;15.35;86.03;96038.23;126985;1092;62642;-79
2021/08/06 03:18:44;;;;;;;13.53;7.40;;;;;;;15.35;86.13;96043.05;127135;1092;62608;-80
2021/08/06 03:21:11;;;;;;;13.57;7.67;;;;;;;15.33;86.30;96043.55;127141;1092;62639;-72
2021/08/06 03:23:38;;;;;;;12.20;7.63;;;;;;;15.32;86.28;96036.45;126928;1092;62774;-80
2021/08/06 03:26:05;;;;;;;11.63;8.40;;;;;;;15.32;86.29;96030.88;126956;1092;62747;-77
2021/08/06 03:28:32;;;;;;;12.77;7.43;;;;;;;15.31;86.67;96039.75;127023;1092;62664;-79
2021/08/06 03:30:59;;;;;;;9.90;7.73;;;;;;;15.30;86.70;96038.23;127052;1092;62614;-78
2021/08/06 03:33:26;;;;;;;15.20;7.87;;;;;;;15.27;86.71;96045.58;127067;1089;62626;-78
2021/08/06 03:35:53;;;;;;;11.30;7.00;;;;;;;15.27;86.65;96040.00;126945;1092;62626;-80
2021/08/06 03:38:21;;;;;;;12.30;7.17;;;;;;;15.23;86.71;96033.89;127042;1092;62812;-80
2021/08/06 03:40:48;;;;;;;12.03;7.83;;;;;;;15.23;86.62;96033.89;127077;1092;62623;-80
2021/08/06 03:43:15;;;;;;;11.80;7.43;;;;;;;15.25;86.56;96036.94;127075;1092;62604;-79
2021/08/06 03:45:42;;;;;;;10.77;6.50;;;;;;;15.25;86.65;96033.38;127050;1092;62628;-80
2021/08/06 03:48:09;;;;;;;12.10;7.70;;;;;;;15.23;86.59;96027.55;126879;1092;62768;-80
2021/08/06 03:50:37;;;;;;;10.37;7.93;;;;;;;15.24;86.71;96038.20;127043;1092;63047;-80
2021/08/06 03:53:04;;;;;;;12.13;7.17;;;;;;;15.26;86.54;96043.27;127067;1092;62623;-79
2021/08/06 03:55:31;;;;;;;13.03;7.33;;;;;;;15.24;86.34;96035.41;127107;1092;62639;-76
2021/08/06 03:57:58;;;;;;;15.37;7.30;;;;;;;15.23;85.48;96041.50;127035;1092;62623;-84
2021/08/06 04:00:27;;;;;;;12.10;7.20;;;;;;;15.20;85.71;96046.06;126999;1092;63047;-74
2021/08/06 04:02:54;;;;;;;14.20;7.07;;;;;;;15.21;85.22;96052.40;127020;1092;62741;-79
2021/08/06 04:05:21;;;;;;;12.17;7.13;;;;;;;15.21;85.43;96053.16;127018;1092;62633;-74
2021/08/06 04:07:48;;;;;;;14.13;8.63;;;;;;;15.22;85.48;96048.34;127162;1092;62651;-76
2021/08/06 04:10:17;;;;;;;11.43;8.23;;;;;;;15.26;85.79;96057.22;127022;1092;62598;-76
2021/08/06 04:12:46;;;;;;;13.80;8.80;;;;;;;15.29;85.95;96054.20;127098;1092;62956;-76
2021/08/06 04:15:13;;;;;;;12.70;9.70;;;;;;;15.33;85.95;96051.92;127014;1092;62742;-72
2021/08/06 04:17:40;;;;;;;11.07;8.77;;;;;;;15.38;86.36;96051.16;127137;1092;62608;-75
2021/08/06 04:20:08;;;;;;;12.80;9.27;;;;;;;15.41;86.38;96049.38;127166;1092;62623;-76
2021/08/06 04:22:48;;;;;;;17.10;8.60;;;;;;;15.48;86.32;96051.69;127192;1092;62656;-75
2021/08/06 04:25:15;;;;;;;15.13;8.53;;;;;;;15.55;86.47;96062.33;127073;1092;62675;-77
2021/08/06 04:27:42;;;;;;;13.23;8.40;;;;;;;15.63;86.50;96054.27;127045;1092;62729;-78
2021/08/06 04:30:09;;;;;;;13.30;8.33;;;;;;;15.69;86.53;96057.80;126909;1092;62655;-82
2021/08/06 04:32:36;;;;;;;12.27;9.70;;;;;;;15.74;86.51;96059.83;126918;1092;62623;-83
2021/08/06 04:35:04;;;;;;;9.03;7.87;;;;;;;15.79;86.19;96061.84;126983;1092;62622;-76
2021/08/06 04:37:31;;;;;;;11.23;7.97;;;;;;;15.84;86.07;96058.31;126892;1092;62705;-74
2021/08/06 04:39:59;;;;;;;9.97;7.57;;;;;;;15.91;85.50;96057.78;127128;1092;62758;-79
2021/08/06 04:42:26;;;;;;;11.47;7.70;;;;;;;15.99;85.59;96058.81;127137;1092;62626;-80
2021/08/06 04:44:53;;;;;;;12.63;8.57;;;;;;;16.04;85.35;96054.48;127197;1092;62577;-73
2021/08/06 04:47:20;;;;;;;11.30;8.43;;;;;;;16.11;85.37;96072.73;127046;1092;62644;-78
2021/08/06 04:49:47;;;;;;;12.67;7.70;;;;;;;16.20;85.58;96072.48;126980;1092;62690;-76
2021/08/06 04:52:14;;;;;;;11.43;8.40;;;;;;;16.25;85.52;96082.88;127003;1092;62725;-80
2021/08/06 04:54:41;;;;;;;16.20;8.93;;;;;;;16.32;85.64;96080.30;127141;1092;62623;-74
2021/08/06 04:57:08;;;;;;;11.17;8.57;;;;;;;16.38;85.81;96083.11;126987;1092;62683;-77
2021/08/06 04:59:35;;;;;;;12.17;8.17;;;;;;;16.45;85.96;96081.81;127177;1092;62626;-75
2021/08/06 05:02:02;;;;;;;13.25;9.10;;;;;;;16.53;86.17;96091.96;127033;1092;62639;-75
2021/08/06 05:04:29;;;;;;;11.97;9.37;;;;;;;16.58;86.01;96096.77;127149;1092;62696;-75
2021/08/06 05:06:56;;;;;;;13.30;9.70;;;;;;;16.65;86.25;96100.30;127114;1092;62659;-74
2021/08/06 05:09:23;;;;;;;12.87;9.20;;;;;;;16.71;86.22;96098.29;127083;1092;62658;-75
2021/08/06 05:11:49;;;;;;;14.07;8.90;;;;;;;16.76;86.55;96097.50;127038;1092;62623;-74
2021/08/06 05:14:16;;;;;;;15.60;9.37;;;;;;;16.82;86.20;96103.82;127072;1092;62575;-75
2021/08/06 05:16:43;;;;;;;15.63;9.53;;;;;;;16.91;86.24;96101.51;127172;1092;62628;-75
2021/08/06 05:19:10;;;;;;;11.57;8.17;;;;;;;17.03;86.10;96112.63;127124;1092;62622;-75
2021/08/06 05:21:37;;;;;;;10.47;7.87;;;;;;;17.14;86.09;96121.73;127032;1092;62639;-75
2021/08/06 05:24:04;;;;;;;13.53;7.80;;;;;;;17.24;86.08;96125.01;127067;1092;62642;-75
2021/08/06 05:26:31;;;;;;;11.17;7.50;;;;;;;17.33;86.18;96129.53;126989;1092;62695;-75
2021/08/06 05:28:58;;;;;;;9.60;7.00;;;;;;;17.42;86.25;96132.03;126972;1092;62764;-75
2021/08/06 05:31:29;;;;;;;9.33;6.50;;;;;;;17.50;86.02;96144.19;127005;1092;62626;-75
2021/08/06 05:33:56;;;;;;;13.30;7.80;;;;;;;17.56;85.97;96136.52;127060;1092;62629;-75
2021/08/06 05:36:23;;;;;;;18.10;10.03;;;;;;;17.59;85.93;96141.06;126934;1092;62700;-75
2021/08/06 05:38:50;;;;;;;32.80;19.57;;;;;;;17.61;85.58;96144.13;126926;1092;62731;-74
2021/08/06 05:41:17;;;;;;;14.27;8.60;;;;;;;17.63;85.08;96155.57;127051;1092;62751;-74
2021/08/06 05:43:44;;;;;;;30.10;20.23;;;;;;;17.64;84.79;96161.92;126934;1092;62661;-73
2021/08/06 05:46:11;;;;;;;22.75;12.10;;;;;;;17.69;84.41;96161.16;127051;1092;62642;-73
2021/08/06 05:48:38;;;;;;;11.07;6.83;;;;;;;17.72;84.58;96160.88;127000;1092;62615;-75
2021/08/06 05:51:05;;;;;;;15.00;11.57;;;;;;;17.80;84.33;96161.85;127157;1092;62641;-74
2021/08/06 05:53:32;;;;;;;22.80;13.50;;;;;;;17.88;84.33;96158.48;127204;1092;62770;-75
2021/08/06 05:55:59;;;;;;;34.63;21.17;;;;;;;17.96;84.07;96154.61;127099;1092;62639;-75
2021/08/06 05:58:27;;;;;;;16.63;9.93;;;;;;;18.05;83.76;96159.12;127011;1092;62639;-75
2021/08/06 06:00:54;;;;;;;8.07;4.53;;;;;;;18.15;82.07;96151.92;127076;1092;62623;-74
2021/08/06 06:03:21;;;;;;;6.07;3.93;;;;;;;18.22;79.58;96142.94;126997;1092;62699;-73
2021/08/06 06:05:48;;;;;;;7.20;3.50;;;;;;;18.31;77.28;96145.42;126986;1092;62572;-73
2021/08/06 06:08:15;;;;;;;7.23;3.50;;;;;;;18.45;78.15;96151.13;126991;1092;62624;-74
2021/08/06 06:10:42;;;;;;;11.37;3.83;;;;;;;18.57;75.01;96141.34;127072;1091;62630;-73
2021/08/06 06:13:09;;;;;;;5.43;3.17;;;;;;;18.70;74.47;96141.50;126916;1092;62623;-74
2021/08/06 06:15:36;;;;;;;4.60;3.10;;;;;;;18.83;75.57;96138.78;126959;1092;62821;-74
2021/08/06 06:18:03;;;;;;;3.53;2.27;;;;;;;18.93;73.97;96145.56;126944;1092;62620;-75
2021/08/06 06:20:29;;;;;;;4.50;2.10;;;;;;;19.02;71.35;96148.00;126939;1090;62616;-74
2021/08/06 06:22:56;;;;;;;4.73;2.47;;;;;;;19.09;72.70;96145.91;126991;1092;62626;-76
2021/08/06 06:25:24;;;;;;;5.93;2.80;;;;;;;19.13;72.59;96152.73;127133;1092;62617;-74
2021/08/06 06:27:53;;;;;;;24.37;15.67;;;;;;;19.19;73.12;96155.45;126906;1092;62705;-75
2021/08/06 06:30:22;;;;;;;8.05;5.13;;;;;;;19.22;72.66;96151.62;127059;1092;62591;-75
2021/08/06 06:32:49;;;;;;;5.33;2.60;;;;;;;19.21;70.58;96150.08;127058;1092;62620;-73
2021/08/06 06:35:16;;;;;;;7.63;3.47;;;;;;;19.15;66.49;96140.97;127058;1092;62629;-76
2021/08/06 06:37:43;;;;;;;5.90;3.20;;;;;;;19.08;68.16;96150.76;127133;1092;62626;-71
2021/08/06 06:40:14;;;;;;;4.77;2.07;;;;;;;19.00;66.01;96155.42;127052;1092;62671;-72
2021/08/06 06:42:41;;;;;;;3.23;2.07;;;;;;;18.98;66.32;96147.55;126969;1092;62611;-71
2021/08/06 06:45:09;;;;;;;4.17;2.60;;;;;;;18.99;65.84;96148.30;126987;1089;62675;-67
2021/08/06 06:47:41;;;;;;;6.10;3.13;;;;;;;19.03;62.01;96143.17;126961;1092;62709;-73
2021/08/06 06:50:09;;;;;;;3.03;2.43;;;;;;;19.07;63.52;96142.88;127001;1092;62553;-80
2021/08/06 06:52:37;;;;;;;4.55;1.60;;;;;;;19.13;62.27;96151.97;126950;1092;62623;-72
2021/08/06 06:55:05;;;;;;;2.93;1.27;;;;;;;19.20;60.81;96151.36;126969;1092;62619;-68
2021/08/06 06:57:44;;;;;;;3.47;1.27;;;;;;;19.26;61.89;96149.27;127106;1092;62703;-71
2021/08/06 07:00:11;;;;;;;4.03;2.43;;;;;;;19.32;61.24;96144.33;127157;1092;62623;-70
2021/08/06 07:02:39;;;;;;;2.27;1.50;;;;;;;19.37;60.31;96137.88;127170;1092;62643;-72
2021/08/06 07:05:06;;;;;;;2.83;1.20;;;;;;;19.39;60.32;96140.94;127090;1092;62611;-77
2021/08/06 07:07:33;;;;;;;7.67;3.60;;;;;;;19.40;61.61;96150.88;127067;1092;62780;-72
2021/08/06 07:10:00;;;;;;;1.30;1.20;;;;;;;19.45;58.34;96152.84;127160;1092;62623;-71
2021/08/06 07:12:48;;;;;;;1.30;1.20;;;;;;;19.49;59.37;96147.67;127136;1092;62575;-77
2021/08/06 07:15:15;;;;;;;1.40;1.30;;;;;;;19.53;58.62;96150.94;127153;1092;62614;-85
2021/08/06 07:17:43;;;;;;;1.30;1.20;;;;;;;19.55;58.65;96142.77;127054;1092;62933;-85
2021/08/06 07:20:11;;;;;;;1.83;1.33;;;;;;;19.59;59.73;96148.85;127125;1092;62757;-81
2021/08/06 07:22:38;;;;;;;1.20;1.10;;;;;;;19.64;58.39;96154.91;127046;1092;62584;-73
2021/08/06 07:25:06;;;;;;;4.50;1.57;;;;;;;19.68;57.26;96149.75;126908;1092;62639;-73
2021/08/06 07:27:33;;;;;;;1.23;1.13;;;;;;;19.71;57.09;96157.86;127003;1092;62636;-80
2021/08/06 07:30:00;;;;;;;3.97;1.30;;;;;;;19.73;57.22;96157.33;126948;1092;62663;-73
2021/08/06 07:32:27;;;;;;;1.10;1.00;;;;;;;19.73;56.34;96163.70;127154;1092;62746;-81
2021/08/06 07:34:54;;;;;;;1.60;1.07;;;;;;;19.72;59.28;96158.62;127178;1092;62608;-76
2021/08/06 07:37:21;;;;;;;5.13;1.33;;;;;;;19.68;57.00;96169.41;127062;1092;62623;-75
2021/08/06 07:39:49;;;;;;;1.13;1.07;;;;;;;19.64;53.77;96155.67;126914;1092;62614;-73
2021/08/06 07:42:16;;;;;;;1.40;1.20;;;;;;;19.57;54.65;96167.53;127045;1092;62703;-81
2021/08/06 07:44:44;;;;;;;2.03;1.33;;;;;;;19.52;54.60;96166.27;127236;1092;62762;-80
2021/08/06 07:47:30;;;;;;;1.27;1.17;;;;;;;19.54;56.24;96168.56;127070;1092;62626;-74
2021/08/06 07:50:17;;;;;;;1.53;1.03;;;;;;;19.55;53.85;96182.07;127050;1092;62633;-73
2021/08/06 07:52:44;;;;;;;1.17;0.90;;;;;;;19.55;53.15;96170.84;127034;1092;62642;-75
2021/08/06 07:55:16;;;;;;;1.10;1.10;;;;;;;19.54;54.13;96174.94;126976;1092;62713;-75
2021/08/06 07:57:43;;;;;;;0.80;0.80;;;;;;;19.54;52.39;96174.94;127202;1092;62605;-73
2021/08/06 08:00:11;;;;;;;1.23;1.07;;;;;;;19.55;53.05;96182.07;127099;1092;62673;-79
2021/08/06 08:02:37;;;;;;;1.37;1.10;;;;;;;19.59;54.49;96168.51;126987;1092;62913;-73
2021/08/06 08:05:10;;;;;;;0.90;0.90;;;;;;;19.69;53.71;96170.92;127016;1092;62626;-73
2021/08/06 08:07:37;;;;;;;1.10;1.00;;;;;;;19.82;52.92;96176.61;127027;1092;62809;-83
2021/08/06 08:10:05;;;;;;;2.63;1.20;;;;;;;19.94;53.58;96172.36;127047;1092;62620;-80
2021/08/06 08:12:32;;;;;;;1.10;1.10;;;;;;;20.06;52.92;96173.69;126976;1092;62642;-85
2021/08/06 08:14:59;;;;;;;1.00;1.00;;;;;;;20.19;52.00;96170.94;127037;1092;62605;-81
2021/08/06 08:17:26;;;;;;;3.75;1.00;;;;;;;20.34;52.37;96175.31;126930;1092;62647;-76
2021/08/06 08:19:53;;;;;;;0.90;0.90;;;;;;;20.42;52.24;96187.45;127079;1090;62636;-71
2021/08/06 08:22:20;;;;;;;0.87;0.87;;;;;;;20.53;51.04;96184.47;127060;1092;62693;-80
2021/08/06 08:24:47;;;;;;;1.20;1.00;;;;;;;20.62;51.36;96188.91;127102;1092;62582;-72
2021/08/06 08:27:14;;;;;;;0.97;0.93;;;;;;;20.69;50.97;96188.29;127142;1092;62633;-81
2021/08/06 08:29:41;;;;;;;1.50;0.93;;;;;;;20.71;50.67;96192.08;127070;1092;62645;-83
2021/08/06 08:32:08;;;;;;;2.50;1.17;;;;;;;20.74;49.31;96190.99;127122;1092;62583;-74
2021/08/06 08:34:35;;;;;;;1.23;1.00;;;;;;;20.74;49.76;96190.99;127016;1092;62793;-74
2021/08/06 08:37:02;;;;;;;2.20;0.90;;;;;;;20.76;49.05;96196.84;127014;1092;62642;-73
2021/08/06 08:39:49;;;;;;;1.10;1.00;;;;;;;20.81;49.77;96189.58;127211;1092;62617;-74
2021/08/06 08:42:17;;;;;;;0.80;0.80;;;;;;;20.92;51.07;96194.27;127065;1092;62620;-77
2021/08/06 08:44:44;;;;;;;1.20;1.10;;;;;;;21.03;49.85;96196.88;127145;1092;62712;-72
2021/08/06 08:47:13;;;;;;;1.70;1.10;;;;;;;21.12;49.04;96202.06;127224;1092;62776;-72
2021/08/06 08:49:40;;;;;;;0.80;0.80;;;;;;;21.16;48.83;96196.86;127216;1092;62620;-74
2021/08/06 08:52:07;;;;;;;1.07;0.70;;;;;;;21.24;48.17;96197.77;127116;1092;62668;-75
2021/08/06 08:54:35;;;;;;;2.07;0.77;;;;;;;21.31;48.21;96197.11;126957;1092;62674;-74
2021/08/06 08:57:22;;;;;;;0.80;0.80;;;;;;;21.42;48.72;96196.14;127145;1092;62713;-80
2021/08/06 08:59:52;;;;;;;2.27;1.00;;;;;;;21.54;49.42;96199.45;127084;1095;62793;-77
2021/08/06 09:02:26;;;;;;;;;;;;;;;21.64;48.41;96194.91;127076;1092;62615;-84
2021/08/06 09:05:12;;;;;;;1.23;1.13;;;;;;;21.73;47.49;96202.92;127188;1092;62623;-78
2021/08/06 09:07:39;;;;;;;2.40;1.17;;;;;;;21.85;47.75;96209.80;127146;1092;62639;-76
2021/08/06 09:10:07;;;;;;;0.90;0.90;;;;;;;22.03;45.13;96220.16;127295;1092;62678;-72
2021/08/06 09:13:00;;;;;;;0.83;0.83;;;;;;;22.15;46.18;96203.03;127111;1092;62719;-74
2021/08/06 09:15:39;;;;;;;0.97;0.97;;;;;;;22.29;46.14;96204.50;127099;1092;62661;-73
2021/08/06 09:18:28;;;;;;;1.07;1.00;;;;;;;22.41;46.80;96208.55;127208;1092;62636;-75
2021/08/06 09:21:00;;;;;;;0.80;0.80;;;;;;;22.46;44.67;96210.50;127104;1092;62632;-72
2021/08/06 09:23:40;;;;;;;0.85;0.85;;;;;;;22.47;45.51;96209.19;126968;1092;62622;-75
2021/08/06 09:26:07;;;;;;;;;;;;;;;22.51;45.56;96212.41;127081;1092;62684;-77
2021/08/06 09:28:34;;;;;;;1.23;0.97;;;;;;;22.56;44.78;96214.33;127093;1092;62639;-72
2021/08/06 09:31:21;;;;;;;1.07;1.00;;;;;;;22.65;46.20;96221.57;127050;1092;62636;-80
2021/08/06 09:33:48;;;;;;;0.70;0.70;;;;;;;22.76;43.00;96220.52;127132;1092;62552;-75
2021/08/06 09:36:18;;;;;;;0.90;0.90;;;;;;;22.86;44.50;96215.94;127104;1092;62660;-73
2021/08/06 09:38:45;;;;;;;1.00;1.00;;;;;;;22.97;44.29;96212.80;127149;1092;62619;-71
2021/08/06 09:41:37;;;;;;;2.20;1.10;;;;;;;23.02;44.76;96214.75;127129;1092;62636;-83
2021/08/06 09:44:22;;;;;;;1.17;0.90;;;;;;;23.13;44.06;96220.08;127055;1092;62647;-73
2021/08/06 09:46:49;;;;;;;3.10;1.40;;;;;;;23.31;43.89;96214.73;127114;1092;62598;-72
2021/08/06 09:49:18;;;;;;;1.73;1.00;;;;;;;23.33;41.42;96214.92;127078;1092;63019;-74
2021/08/06 09:51:46;;;;;;;1.13;0.90;;;;;;;23.35;42.90;96223.63;127177;1092;62684;-77
2021/08/06 09:54:19;;;;;;;1.43;1.10;;;;;;;23.59;42.86;96213.98;127139;1092;62682;-72
2021/08/06 09:56:47;;;;;;;1.43;1.20;;;;;;;24.16;41.86;96214.58;127119;1092;62623;-78
2021/08/06 09:59:28;;;;;;;1.00;1.00;;;;;;;25.13;39.60;96206.02;126954;1092;62658;-84
2021/08/06 10:02:15;;;;;;;3.63;1.00;;;;;;;25.76;36.04;96220.27;127134;1092;62687;-75
2021/08/06 10:05:06;;;;;;;0.90;0.90;;;;;;;26.44;36.06;96209.94;127183;1092;62755;-74
2021/08/06 10:07:38;;;;;;;2.67;1.03;;;;;;;27.37;34.96;96209.38;127104;1092;62629;-83
2021/08/06 10:10:07;;;;;;;0.97;0.80;;;;;;;28.33;32.31;96211.50;127151;1092;62623;-76
2021/08/06 10:12:34;;;;;;;2.20;1.17;;;;;;;29.07;30.83;96213.05;127252;1092;62639;-74
2021/08/06 10:15:01;;;;;;;3.33;1.10;;;;;;;29.59;28.59;96218.42;127083;1092;62613;-79
2021/08/06 10:17:28;;;;;;;0.90;0.90;;;;;;;29.96;28.75;96209.72;127071;1092;62756;-79
2021/08/06 10:19:55;;;;;;;1.67;1.20;;;;;;;30.52;28.68;96218.05;127045;1092;62643;-73
2021/08/06 10:22:22;;;;;;;3.13;1.10;;;;;;;31.04;27.29;96214.58;127083;1092;62633;-76
2021/08/06 10:24:51;;;;;;;1.20;1.10;;;;;;;31.42;26.90;96207.91;127175;1092;62626;-70
2021/08/06 10:27:28;;;;;;;1.30;1.20;;;;;;;31.70;27.45;96209.08;127188;1092;62623;-70
2021/08/06 10:29:55;;;;;;;1.83;1.37;;;;;;;32.30;26.55;96205.88;127058;1092;63067;-76
2021/08/06 10:32:22;;;;;;;1.97;1.30;;;;;;;32.65;25.39;96203.83;127117;1092;63028;-70
2021/08/06 10:35:12;;;;;;;2.95;1.35;;;;;;;33.28;25.02;96204.87;127126;1090;62691;-71
2021/08/06 10:38:00;;;;;;;0.90;0.90;;;;;;;34.15;24.35;96211.42;126962;1092;62591;-77
2021/08/06 10:40:33;;;;;;;1.03;0.93;;;;;;;34.26;25.38;96207.72;126916;1092;62627;-76
2021/08/06 10:43:11;;;;;;;1.10;1.00;;;;;;;34.39;24.39;96204.19;126999;1092;62584;-78
2021/08/06 10:48:34;;;;;;;2.00;0.95;;;;;;;35.51;22.51;96203.73;126927;1092;62623;-76
2021/08/06 10:53:59;;;;;;;1.53;1.10;;;;;;;34.72;23.63;96206.73;126982;1092;63009;-75
2021/08/06 10:56:30;;;;;;;1.50;1.00;;;;;;;34.92;22.81;96207.11;127057;1092;62735;-70
2021/08/06 10:59:13;;;;;;;2.33;1.07;;;;;;;33.85;23.70;96202.54;127054;1092;62623;-73
2021/08/06 11:01:45;;;;;;;0.85;0.85;;;;;;;32.89;25.54;96201.03;127084;1092;62626;-73
2021/08/06 11:04:15;;;;;;;3.60;1.00;;;;;;;31.97;26.26;96203.02;127174;1092;62600;-77
2021/08/06 11:06:47;;;;;;;0.90;0.90;;;;;;;31.28;26.42;96209.83;126957;1092;62635;-74
2021/08/06 11:09:26;;;;;;;3.25;1.60;;;;;;;30.63;27.23;96214.60;126977;1092;62622;-73
2021/08/06 11:11:57;;;;;;;;;;;;;;;30.54;29.34;96215.37;127139;1092;62639;-72
2021/08/06 11:14:33;;;;;;;1.20;1.00;;;;;;;30.19;26.73;96221.45;127032;1092;62671;-77
2021/08/06 11:17:08;;;;;;;1.47;1.00;;;;;;;30.23;28.44;96210.33;126947;1092;62626;-68
2021/08/06 11:19:55;;;;;;;1.03;0.90;;;;;;;30.86;28.82;96217.66;126922;1092;62626;-70
2021/08/06 11:22:24;;;;;;;0.90;0.90;;;;;;;31.08;26.85;96238.50;126950;1092;62588;-74
2021/08/06 11:24:56;;;;;;;3.50;1.00;;;;;;;30.70;27.02;96225.09;126965;1092;62671;-68
2021/08/06 11:27:35;;;;;;;1.20;1.05;;;;;;;30.92;27.08;96220.96;126961;1092;62614;-69
2021/08/06 11:30:10;;;;;;;0.80;0.80;;;;;;;31.03;25.00;96218.80;126990;1092;62633;-72
2021/08/06 11:32:56;;;;;;;0.80;0.80;;;;;;;31.21;25.98;96211.50;127029;1092;62658;-71
2021/08/06 11:35:25;;;;;;;1.50;1.20;;;;;;;31.30;25.60;96218.54;127125;1092;62610;-70
2021/08/06 11:37:59;;;;;;;1.95;0.95;;;;;;;31.70;25.53;96206.96;127072;1092;62617;-83
2021/08/06 11:40:29;;;;;;;2.55;1.00;;;;;;;32.09;25.70;96210.27;127095;1092;62575;-89